Time;durP1;ratioP1;P1;durP2;ratioP2;P2;SDS_P1;SDS_P2;PMS_P1;PMS_P2;Temp;Humidity;BMP_temperature;BMP_pressure;BME280_temperature;BME280_humidity;BME280_pressure;Samples;Min_cycle;Max_cycle;Signal;HPM_P1;HPM_P2
2022/06/15 00:01:26;;;;;;;5.18;2.70;;;13.00;99.90;;;;;;5028407;28;20022;-50
2022/06/15 00:03:52;;;;;;;6.43;3.58;;;13.00;99.90;;;;;;5028798;28;20396;-48
2022/06/15 00:06:23;;;;;;;4.75;2.80;;;12.90;99.90;;;;;;5027575;28;20025;-48
2022/06/15 00:08:52;;;;;;;4.93;2.85;;;12.90;99.90;;;;;;5028815;28;20047;-47
2022/06/15 00:11:25;;;;;;;4.28;2.80;;;12.70;99.90;;;;;;5028130;28;20030;-48
2022/06/15 00:13:53;;;;;;;4.63;2.75;;;12.70;99.90;;;;;;5028742;28;20126;-47
2022/06/15 00:16:20;;;;;;;5.47;3.33;;;12.50;99.90;;;;;;5028619;28;20120;-47
2022/06/15 00:18:46;;;;;;;5.28;3.20;;;12.60;99.90;;;;;;5028638;28;20101;-48
2022/06/15 00:21:13;;;;;;;7.07;2.95;;;12.60;99.90;;;;;;5027977;28;20100;-48
2022/06/15 00:23:39;;;;;;;5.28;2.80;;;12.60;99.90;;;;;;5028625;28;20034;-47
2022/06/15 00:26:05;;;;;;;7.65;3.78;;;12.70;99.90;;;;;;5028872;28;20061;-47
2022/06/15 00:28:31;;;;;;;5.43;3.20;;;12.70;99.90;;;;;;5028586;28;20395;-49
2022/06/15 00:30:57;;;;;;;10.02;3.70;;;12.70;99.90;;;;;;5027969;28;20029;-48
2022/06/15 00:33:24;;;;;;;4.00;2.88;;;12.70;99.90;;;;;;5028466;28;20033;-47
2022/06/15 00:35:57;;;;;;;7.75;3.63;;;12.60;99.90;;;;;;5028432;28;20022;-47
2022/06/15 00:38:28;;;;;;;7.03;3.38;;;12.50;99.90;;;;;;5028588;28;20084;-49
2022/06/15 00:40:54;;;;;;;7.07;2.90;;;12.50;99.90;;;;;;5027900;28;20026;-48
2022/06/15 00:43:32;;;;;;;8.00;3.20;;;12.50;99.90;;;;;;5028699;28;20506;-48
2022/06/15 00:45:58;;;;;;;8.88;3.47;;;12.50;99.90;;;;;;5028663;28;20112;-47
2022/06/15 00:48:23;;;;;;;7.43;3.15;;;12.40;99.90;;;;;;5029079;28;20025;-46
2022/06/15 00:50:50;;;;;;;5.43;2.67;;;12.30;99.90;;;;;;5027867;28;20037;-47
2022/06/15 00:53:16;;;;;;;3.35;2.97;;;12.30;99.90;;;;;;5028366;28;20021;-50
2022/06/15 00:55:43;;;;;;;10.82;3.63;;;12.30;99.90;;;;;;5028436;28;20028;-46
2022/06/15 00:58:09;;;;;;;6.68;3.28;;;12.30;99.90;;;;;;5028458;28;20026;-47
2022/06/15 01:00:35;;;;;;;6.90;3.40;;;12.30;99.90;;;;;;5028047;28;20108;-48
2022/06/15 01:03:00;;;;;;;8.60;3.92;;;12.20;99.90;;;;;;5028410;28;20124;-49
2022/06/15 01:05:37;;;;;;;7.85;3.58;;;12.20;99.90;;;;;;5028428;28;20025;-50
2022/06/15 01:08:16;;;;;;;5.75;3.28;;;12.10;99.90;;;;;;5028586;28;20120;-48
2022/06/15 01:11:13;;;;;;;8.32;3.58;;;12.10;99.90;;;;;;5027788;28;20076;-49
2022/06/15 01:14:04;;;;;;;7.10;3.28;;;12.00;99.90;;;;;;5027101;28;20029;-49
2022/06/15 01:16:50;;;;;;;7.22;3.75;;;12.00;99.90;;;;;;5028696;28;20041;-48
2022/06/15 01:19:39;;;;;;;7.57;2.95;;;12.00;99.90;;;;;;5027338;28;20029;-50
2022/06/15 01:22:46;;;;;;;8.85;3.50;;;12.00;99.90;;;;;;5028296;28;20036;-48
2022/06/15 01:25:39;;;;;;;8.90;3.72;;;11.90;99.90;;;;;;5026893;28;20025;-47
2022/06/15 01:28:32;;;;;;;6.60;3.13;;;11.90;99.90;;;;;;5027965;28;20029;-47
2022/06/15 01:31:23;;;;;;;7.60;3.28;;;11.80;99.90;;;;;;5028647;28;20049;-47
2022/06/15 01:34:24;;;;;;;4.95;3.10;;;11.70;99.90;;;;;;5031495;28;20028;-46
2022/06/15 01:37:11;;;;;;;4.80;2.75;;;11.60;99.90;;;;;;5031456;28;20043;-47
2022/06/15 01:39:52;;;;;;;3.35;2.67;;;11.60;99.90;;;;;;5031023;28;20043;-48
2022/06/15 01:42:24;;;;;;;7.65;3.13;;;11.50;99.90;;;;;;5031720;28;20037;-48
2022/06/15 01:44:56;;;;;;;8.48;3.70;;;11.50;99.90;;;;;;5030300;28;20045;-46
2022/06/15 01:47:25;;;;;;;10.23;4.15;;;11.50;99.90;;;;;;5031515;28;20018;-49
2022/06/15 01:50:09;;;;;;;7.93;3.58;;;11.50;99.90;;;;;;5030954;28;20238;-49
2022/06/15 01:53:01;;;;;;;10.38;3.83;;;11.40;99.90;;;;;;5031262;28;20076;-48
2022/06/15 01:55:44;;;;;;;6.53;3.80;;;11.40;99.90;;;;;;5031263;28;20026;-47
2022/06/15 01:58:12;;;;;;;7.43;3.95;;;11.40;99.90;;;;;;5031297;28;20549;-49
2022/06/15 02:00:38;;;;;;;5.60;3.53;;;11.40;99.90;;;;;;5030446;28;20056;-47
2022/06/15 02:03:29;;;;;;;5.75;3.83;;;11.30;99.90;;;;;;5031202;28;20484;-49
2022/06/15 02:06:01;;;;;;;8.98;3.92;;;11.30;99.90;;;;;;5030937;28;20516;-47
2022/06/15 02:08:48;;;;;;;7.18;4.03;;;11.20;99.90;;;;;;5030932;28;20393;-47
2022/06/15 02:11:23;;;;;;;5.40;3.85;;;11.20;99.90;;;;;;5030264;28;20082;-49
2022/06/15 02:13:57;;;;;;;7.97;4.38;;;11.20;99.90;;;;;;5030692;28;20025;-47
2022/06/15 02:16:28;;;;;;;8.02;3.92;;;11.20;99.90;;;;;;5030994;28;20082;-48
2022/06/15 02:18:55;;;;;;;6.85;4.70;;;11.20;99.90;;;;;;5031139;28;20033;-48
2022/06/15 02:21:24;;;;;;;7.90;4.22;;;11.30;99.90;;;;;;5030427;28;20026;-48
2022/06/15 02:23:57;;;;;;;6.05;4.20;;;11.20;99.90;;;;;;5030897;28;20033;-47
2022/06/15 02:26:25;;;;;;;8.15;4.38;;;11.20;99.90;;;;;;5031329;28;20025;-47
2022/06/15 02:28:56;;;;;;;7.18;4.75;;;11.10;99.90;;;;;;5030801;28;20025;-47
2022/06/15 02:31:21;;;;;;;;;;;11.20;99.90;;;;;;5030644;28;20029;-47
2022/06/15 02:33:54;;;;;;;12.30;4.53;;;11.20;99.90;;;;;;5030899;28;20274;-48
2022/06/15 02:36:21;;;;;;;7.47;4.72;;;11.10;99.90;;;;;;5030633;28;20014;-50
2022/06/15 02:38:49;;;;;;;8.85;5.28;;;11.10;99.90;;;;;;5030457;28;20108;-48
2022/06/15 02:41:17;;;;;;;10.88;4.75;;;11.10;99.90;;;;;;5028463;28;20029;-50
2022/06/15 02:43:43;;;;;;;7.07;4.53;;;11.00;99.90;;;;;;5029651;28;20017;-47
2022/06/15 02:46:13;;;;;;;9.48;5.03;;;11.00;99.90;;;;;;5029059;28;20034;-47
2022/06/15 02:48:39;;;;;;;8.60;4.80;;;11.10;99.90;;;;;;5030443;28;20088;-47
2022/06/15 02:51:25;;;;;;;11.57;5.22;;;11.00;99.90;;;;;;5029585;28;20029;-48
2022/06/15 02:53:55;;;;;;;9.73;5.32;;;11.10;99.90;;;;;;5029996;28;20410;-49
2022/06/15 02:56:23;;;;;;;12.68;5.57;;;11.10;99.90;;;;;;5030195;28;20475;-48
2022/06/15 02:58:49;;;;;;;10.15;4.88;;;11.10;99.90;;;;;;5030261;28;20490;-48
2022/06/15 03:01:16;;;;;;;9.30;5.43;;;11.00;99.90;;;;;;5029441;28;20029;-49
2022/06/15 03:03:41;;;;;;;5.88;4.72;;;11.00;99.90;;;;;;5030201;28;20037;-50
2022/06/15 03:06:12;;;;;;;11.20;5.45;;;11.00;99.90;;;;;;5029797;28;20029;-47
2022/06/15 03:08:37;;;;;;;10.35;5.25;;;11.00;99.90;;;;;;5029856;28;20037;-48
2022/06/15 03:11:03;;;;;;;8.57;5.28;;;10.90;99.90;;;;;;5027881;28;20037;-47
2022/06/15 03:13:28;;;;;;;6.88;4.18;;;10.80;99.90;;;;;;5029661;28;20033;-49
2022/06/15 03:15:59;;;;;;;11.13;6.85;;;10.80;99.90;;;;;;5029670;28;20034;-48
2022/06/15 03:18:29;;;;;;;15.25;6.03;;;10.80;99.90;;;;;;5028420;28;20286;-46
2022/06/15 03:21:00;;;;;;;10.05;5.15;;;10.80;99.90;;;;;;5028964;28;20029;-47
2022/06/15 03:23:25;;;;;;;7.82;5.20;;;10.80;99.90;;;;;;5029680;28;20025;-47
2022/06/15 03:25:55;;;;;;;16.02;6.00;;;10.80;99.90;;;;;;5029612;28;20185;-50
2022/06/15 03:28:21;;;;;;;8.43;5.68;;;10.80;99.90;;;;;;5029816;28;20018;-48
2022/06/15 03:30:47;;;;;;;11.43;6.18;;;10.80;99.90;;;;;;5027894;28;20104;-47
2022/06/15 03:33:13;;;;;;;9.90;5.57;;;10.80;99.90;;;;;;5029651;28;20675;-47
2022/06/15 03:35:39;;;;;;;6.10;4.68;;;10.90;99.90;;;;;;5029498;28;20479;-48
2022/06/15 03:38:08;;;;;;;7.32;4.80;;;10.80;99.90;;;;;;5029512;28;20112;-49
2022/06/15 03:40:35;;;;;;;9.93;5.15;;;10.80;99.90;;;;;;5028693;28;20018;-50
2022/06/15 03:43:01;;;;;;;8.32;5.03;;;10.80;99.90;;;;;;5029271;28;20087;-51
2022/06/15 03:45:26;;;;;;;9.15;5.93;;;10.90;99.90;;;;;;5029325;28;20021;-48
2022/06/15 03:47:55;;;;;;;8.68;5.15;;;10.90;99.90;;;;;;5027881;28;20262;-50
2022/06/15 03:50:23;;;;;;;7.85;5.43;;;10.90;99.90;;;;;;5028298;28;20021;-51
2022/06/15 03:52:48;;;;;;;13.43;5.97;;;10.90;99.90;;;;;;5029158;28;20025;-48
2022/06/15 03:55:14;;;;;;;10.45;6.07;;;10.90;99.90;;;;;;5027883;28;20029;-47
2022/06/15 03:57:39;;;;;;;13.88;6.60;;;10.90;99.90;;;;;;5028780;28;20041;-48
2022/06/15 04:00:06;;;;;;;10.63;5.95;;;11.00;99.90;;;;;;5028474;28;20426;-49
2022/06/15 04:02:32;;;;;;;10.68;5.80;;;11.00;99.90;;;;;;5029426;28;20033;-47
2022/06/15 04:04:57;;;;;;;10.07;5.20;;;11.00;99.90;;;;;;5028927;28;20041;-48
2022/06/15 04:10:09;;;;;;;7.88;5.00;;;11.00;99.90;;;;;;5028711;28;20453;-48
2022/06/15 04:12:35;;;;;;;12.45;6.15;;;11.00;99.90;;;;;;5029043;28;20064;-48
2022/06/15 04:15:00;;;;;;;7.63;5.45;;;11.00;99.90;;;;;;5029023;28;20491;-48
2022/06/15 04:17:26;;;;;;;13.52;5.78;;;11.00;99.90;;;;;;5028872;28;20030;-50
2022/06/15 04:22:35;;;;;;;9.35;5.53;;;11.10;99.90;;;;;;5029235;28;20033;-47
2022/06/15 04:25:02;;;;;;;14.05;5.90;;;11.10;99.90;;;;;;5028976;28;20479;-49
2022/06/15 04:27:27;;;;;;;16.05;6.93;;;11.20;99.90;;;;;;5029067;28;20471;-48
2022/06/15 04:29:53;;;;;;;15.65;6.07;;;11.20;99.90;;;;;;5028125;28;20139;-46
2022/06/15 04:32:18;;;;;;;12.77;6.47;;;11.20;99.90;;;;;;5027509;28;20514;-48
2022/06/15 04:34:44;;;;;;;11.18;5.65;;;11.30;99.90;;;;;;5028138;28;20573;-48
2022/06/15 04:37:09;;;;;;;11.75;5.88;;;11.30;99.90;;;;;;5028115;28;20158;-48
2022/06/15 04:39:35;;;;;;;13.55;5.93;;;11.30;99.90;;;;;;5027726;28;20037;-47
2022/06/15 04:42:00;;;;;;;10.98;5.03;;;11.40;99.90;;;;;;5028974;28;20029;-47
2022/06/15 04:44:26;;;;;;;10.60;5.82;;;11.40;99.90;;;;;;5027995;28;20120;-50
2022/06/15 04:46:51;;;;;;;12.20;5.57;;;11.40;99.90;;;;;;5027987;28;20056;-47
2022/06/15 04:49:17;;;;;;;10.30;5.45;;;11.40;99.90;;;;;;5027991;28;20093;-49
2022/06/15 04:51:42;;;;;;;9.90;5.65;;;11.50;99.90;;;;;;5020735;28;20375;-47
2022/06/15 04:54:10;;;;;;;9.68;5.60;;;11.50;99.90;;;;;;5027101;28;20517;-47
2022/06/15 04:56:37;;;;;;;7.20;4.57;;;11.50;99.90;;;;;;5025281;28;20421;-51
2022/06/15 04:59:03;;;;;;;7.15;4.90;;;11.60;99.90;;;;;;5028001;28;20017;-47
2022/06/15 05:01:29;;;;;;;9.23;5.18;;;11.60;99.90;;;;;;5027449;28;20056;-47
2022/06/15 05:03:55;;;;;;;7.65;4.68;;;11.70;99.90;;;;;;5011666;28;20060;-48
2022/06/15 05:06:24;;;;;;;9.77;4.90;;;11.80;99.90;;;;;;5023467;28;20376;-45
2022/06/15 05:08:49;;;;;;;10.30;5.15;;;11.80;99.90;;;;;;5022754;28;20438;-46
2022/06/15 05:11:14;;;;;;;7.30;5.43;;;11.90;99.90;;;;;;5015942;28;20030;-47
2022/06/15 05:13:40;;;;;;;13.23;4.90;;;11.90;99.90;;;;;;5028195;28;20464;-47
2022/06/15 05:16:05;;;;;;;7.57;5.15;;;12.00;99.90;;;;;;5016641;28;20067;-49
2022/06/15 05:18:31;;;;;;;10.95;5.35;;;12.10;99.90;;;;;;5026339;28;20518;-46
2022/06/15 05:20:59;;;;;;;11.23;5.22;;;12.10;99.90;;;;;;5030321;28;20026;-46
2022/06/15 05:23:24;;;;;;;7.97;4.20;;;12.20;99.90;;;;;;5028462;28;20025;-46
2022/06/15 05:25:50;;;;;;;8.27;4.13;;;12.30;99.90;;;;;;5031098;28;20037;-46
2022/06/15 05:28:15;;;;;;;6.70;4.30;;;12.30;99.90;;;;;;5029028;28;20128;-47
2022/06/15 05:30:41;;;;;;;10.48;4.47;;;12.40;99.90;;;;;;5029964;28;20395;-46
2022/06/15 05:33:07;;;;;;;5.07;3.85;;;12.40;99.90;;;;;;5031241;28;20060;-48
2022/06/15 05:35:32;;;;;;;6.35;4.40;;;12.50;99.90;;;;;;5030982;28;20036;-48
2022/06/15 05:37:58;;;;;;;8.23;4.55;;;12.50;99.90;;;;;;5030225;28;20378;-48
2022/06/15 05:40:24;;;;;;;8.10;4.72;;;12.50;99.90;;;;;;5030828;28;20080;-47
2022/06/15 05:42:50;;;;;;;11.27;4.32;;;12.60;99.90;;;;;;5031340;28;20100;-46
2022/06/15 05:45:15;;;;;;;11.02;4.65;;;12.70;99.90;;;;;;5030578;28;20026;-47
2022/06/15 05:47:41;;;;;;;6.20;4.43;;;12.80;99.90;;;;;;5030578;28;20102;-47
2022/06/15 05:50:07;;;;;;;11.45;4.70;;;12.90;99.90;;;;;;5031027;28;20025;-47
2022/06/15 05:52:33;;;;;;;9.38;4.57;;;13.00;99.90;;;;;;5031286;28;20026;-48
2022/06/15 05:55:00;;;;;;;12.48;4.45;;;13.20;99.90;;;;;;5031254;28;20083;-51
2022/06/15 05:57:27;;;;;;;8.07;4.47;;;13.30;99.90;;;;;;5031210;28;20052;-48
2022/06/15 05:59:57;;;;;;;10.27;4.55;;;13.30;99.90;;;;;;5030234;28;20100;-50
2022/06/15 06:02:25;;;;;;;6.15;4.13;;;13.40;99.90;;;;;;5030959;28;20108;-49
2022/06/15 06:04:51;;;;;;;10.00;5.20;;;13.40;99.90;;;;;;5030858;28;20498;-47
2022/06/15 06:07:20;;;;;;;16.30;4.97;;;13.50;99.90;;;;;;5029981;28;20394;-48
2022/06/15 06:09:46;;;;;;;10.82;4.85;;;13.60;99.90;;;;;;5030137;28;20375;-47
2022/06/15 06:12:12;;;;;;;12.50;4.28;;;13.70;99.90;;;;;;5030677;28;20029;-47
2022/06/15 06:14:38;;;;;;;13.75;4.63;;;13.80;99.90;;;;;;5030403;28;20033;-47
2022/06/15 06:17:05;;;;;;;6.32;3.75;;;13.80;99.90;;;;;;5029554;28;20049;-48
2022/06/15 06:19:33;;;;;;;10.35;4.03;;;13.90;99.90;;;;;;5029981;28;20037;-46
2022/06/15 06:21:59;;;;;;;5.97;3.97;;;14.00;99.90;;;;;;5030107;28;20030;-47
2022/06/15 06:24:24;;;;;;;9.00;4.47;;;14.20;99.90;;;;;;5030645;28;20111;-50
2022/06/15 06:26:57;;;;;;;11.30;4.50;;;14.30;99.90;;;;;;5030237;28;20030;-46
2022/06/15 06:29:23;;;;;;;9.43;3.38;;;14.40;99.90;;;;;;5037163;28;20348;-48
2022/06/15 06:31:48;;;;;;;8.25;3.75;;;14.50;99.90;;;;;;5036264;28;20033;-50
2022/06/15 06:34:14;;;;;;;7.82;4.13;;;14.70;99.90;;;;;;5030121;28;20493;-48
2022/06/15 06:36:41;;;;;;;7.35;2.95;;;14.80;99.90;;;;;;5028564;28;20030;-49
2022/06/15 06:39:17;;;;;;;5.45;3.67;;;14.90;99.90;;;;;;5029589;28;20153;-48
2022/06/15 06:41:43;;;;;;;11.85;4.20;;;15.10;99.90;;;;;;5027889;28;20018;-48
2022/06/15 06:44:10;;;;;;;13.57;3.70;;;15.20;99.90;;;;;;5029939;28;20075;-49
2022/06/15 06:46:37;;;;;;;11.70;3.60;;;15.40;99.90;;;;;;5030340;28;20021;-48
2022/06/15 06:49:07;;;;;;;8.52;3.40;;;15.50;99.90;;;;;;5030370;28;20025;-48
2022/06/15 06:51:35;;;;;;;11.70;3.40;;;15.70;99.90;;;;;;5027672;28;20017;-48
2022/06/15 06:54:01;;;;;;;11.05;3.10;;;15.80;99.90;;;;;;5029394;28;20280;-49
2022/06/15 06:56:26;;;;;;;8.38;2.70;;;15.90;99.80;;;;;;5030220;28;20045;-49
2022/06/15 06:58:52;;;;;;;4.85;2.40;;;16.10;99.80;;;;;;5028722;28;20061;-49
2022/06/15 07:01:17;;;;;;;6.38;2.50;;;16.20;99.40;;;;;;5029315;28;20397;-48
2022/06/15 07:03:43;;;;;;;9.85;3.25;;;16.30;99.00;;;;;;5029313;28;20029;-50
2022/06/15 07:06:10;;;;;;;5.07;3.00;;;16.50;97.20;;;;;;5029853;28;20036;-47
2022/06/15 07:08:39;;;;;;;5.75;2.75;;;16.70;97.00;;;;;;5029561;28;20029;-48
2022/06/15 07:11:13;;;;;;;6.18;3.33;;;16.80;97.00;;;;;;5028590;28;20025;-50
2022/06/15 07:13:39;;;;;;;9.50;2.95;;;16.90;96.70;;;;;;5029854;28;20217;-50
2022/06/15 07:16:10;;;;;;;11.50;3.15;;;17.10;96.50;;;;;;5029696;28;20542;-49
2022/06/15 07:18:36;;;;;;;5.28;2.90;;;17.40;95.80;;;;;;5029664;28;20144;-47
2022/06/15 07:21:04;;;;;;;7.50;2.85;;;17.40;96.00;;;;;;5028760;28;20117;-49
2022/06/15 07:23:30;;;;;;;9.18;2.90;;;17.50;95.40;;;;;;5018541;28;20022;-47
2022/06/15 07:25:56;;;;;;;6.90;2.90;;;17.60;95.70;;;;;;5029526;28;20056;-47
2022/06/15 07:28:22;;;;;;;4.78;2.63;;;17.80;95.40;;;;;;5028681;28;20025;-47
2022/06/15 07:30:47;;;;;;;3.92;2.28;;;17.90;94.40;;;;;;5028800;28;20036;-48
2022/06/15 07:33:15;;;;;;;5.15;2.45;;;18.00;94.60;;;;;;5041493;28;20029;-48
2022/06/15 07:35:41;;;;;;;7.95;2.38;;;18.20;94.10;;;;;;5029414;28;20014;-48
2022/06/15 07:38:07;;;;;;;9.05;3.50;;;18.30;93.80;;;;;;5029356;28;20029;-50
2022/06/15 07:40:33;;;;;;;8.07;2.80;;;18.60;93.10;;;;;;5028880;28;20532;-47
2022/06/15 07:42:58;;;;;;;10.50;2.85;;;18.70;92.90;;;;;;5028494;28;20049;-48
2022/06/15 07:45:25;;;;;;;9.55;2.75;;;18.90;92.30;;;;;;5028391;28;20547;-50
2022/06/15 07:50:38;;;;;;;6.57;2.40;;;19.30;91.80;;;;;;5028938;28;20583;-48
2022/06/15 07:53:06;;;;;;;6.90;2.58;;;19.50;91.90;;;;;;5027113;28;20212;-48
2022/06/15 07:55:35;;;;;;;6.40;2.50;;;19.60;90.90;;;;;;5028774;28;20033;-49
2022/06/15 07:58:01;;;;;;;10.27;2.55;;;19.90;90.10;;;;;;5028793;28;20025;-48
2022/06/15 08:00:27;;;;;;;5.13;2.33;;;20.20;88.70;;;;;;5028412;28;20088;-51
2022/06/15 08:02:53;;;;;;;9.90;2.85;;;20.30;87.90;;;;;;5029066;28;20033;-47
2022/06/15 08:05:20;;;;;;;7.43;2.40;;;20.50;86.80;;;;;;5026937;28;20040;-47
2022/06/15 08:07:47;;;;;;;7.10;2.33;;;21.10;84.10;;;;;;5028158;28;20490;-51
2022/06/15 08:10:14;;;;;;;5.75;2.22;;;21.70;81.10;;;;;;5028052;28;20398;-50
2022/06/15 08:12:41;;;;;;;5.72;2.08;;;22.40;77.50;;;;;;5027964;28;20034;-51
2022/06/15 08:15:07;;;;;;;7.72;1.77;;;23.60;75.30;;;;;;5028450;28;20033;-49
2022/06/15 08:17:44;;;;;;;8.10;2.15;;;25.00;72.10;;;;;;5028412;28;20104;-51
2022/06/15 08:20:29;;;;;;;5.18;1.60;;;26.50;64.20;;;;;;5026726;28;20022;-51
2022/06/15 08:23:01;;;;;;;6.53;1.88;;;27.70;61.00;;;;;;5026776;28;20029;-52
2022/06/15 08:25:34;;;;;;;3.50;1.67;;;29.40;55.00;;;;;;5014430;28;20033;-51
2022/06/15 08:28:00;;;;;;;6.85;1.67;;;29.70;52.70;;;;;;5029863;28;20034;-51
2022/06/15 08:30:27;;;;;;;3.22;1.67;;;30.10;51.60;;;;;;5029347;28;20039;-51
2022/06/15 08:32:53;;;;;;;4.05;1.63;;;30.80;50.30;;;;;;5029268;28;20058;-51
2022/06/15 08:35:19;;;;;;;4.88;1.73;;;32.00;46.90;;;;;;5029843;28;20102;-52
2022/06/15 08:37:45;;;;;;;7.65;1.90;;;32.30;47.00;;;;;;5028426;28;20033;-51
2022/06/15 08:40:12;;;;;;;5.35;1.80;;;32.40;46.30;;;;;;5030158;28;20030;-51
2022/06/15 08:42:57;;;;;;;3.95;1.52;;;33.10;45.60;;;;;;5036299;28;20195;-48
2022/06/15 08:45:39;;;;;;;4.75;1.65;;;34.30;42.60;;;;;;5034810;28;20073;-51
2022/06/15 08:48:24;;;;;;;3.90;1.65;;;34.10;42.90;;;;;;5035043;28;20736;-52
2022/06/15 08:51:06;;;;;;;2.97;1.42;;;34.50;42.70;;;;;;5025821;28;20080;-51
2022/06/15 08:53:45;;;;;;;6.00;1.77;;;34.40;43.30;;;;;;5031624;28;20048;-51
2022/06/15 08:56:37;;;;;;;6.63;2.00;;;35.00;41.10;;;;;;5036051;28;20025;-51
2022/06/15 08:59:17;;;;;;;7.68;1.90;;;35.40;39.90;;;;;;5031584;28;20033;-50
2022/06/15 09:01:55;;;;;;;4.47;1.77;;;35.70;39.40;;;;;;5028781;28;20494;-51
2022/06/15 09:04:27;;;;;;;4.72;1.20;;;35.60;39.20;;;;;;5023212;28;20132;-51
2022/06/15 09:07:22;;;;;;;2.90;1.25;;;36.30;38.60;;;;;;5026444;28;20079;-50
2022/06/15 09:10:15;;;;;;;7.88;2.17;;;37.40;36.80;;;;;;5026208;28;20025;-51
2022/06/15 09:13:20;;;;;;;4.68;1.63;;;36.40;38.30;;;;;;5026074;28;20026;-51
2022/06/15 09:16:26;;;;;;;3.58;1.58;;;35.20;39.10;;;;;;5028331;28;20029;-51
2022/06/15 09:18:57;;;;;;;3.55;1.92;;;36.20;39.40;;;;;;5027871;28;20030;-52
2022/06/15 09:21:34;;;;;;;6.78;1.92;;;36.90;37.60;;;;;;5028658;28;20030;-53
2022/06/15 09:24:00;;;;;;;3.40;1.65;;;37.10;38.00;;;;;;5027795;28;20033;-54
2022/06/15 09:26:32;;;;;;;5.13;1.35;;;37.50;37.50;;;;;;5030196;28;20025;-52
2022/06/15 09:29:03;;;;;;;8.82;1.90;;;37.10;37.30;;;;;;5030257;28;20040;-52
2022/06/15 09:31:46;;;;;;;7.75;1.90;;;37.40;36.10;;;;;;5027402;28;20021;-52
2022/06/15 09:34:18;;;;;;;6.65;1.85;;;37.00;35.80;;;;;;5026358;28;20100;-52
2022/06/15 09:36:53;;;;;;;5.07;1.52;;;35.40;36.30;;;;;;5016088;28;20273;-51
2022/06/15 09:39:19;;;;;;;4.47;1.58;;;36.60;37.50;;;;;;5033759;28;20033;-51
2022/06/15 09:42:24;;;;;;;4.90;1.30;;;37.30;37.30;;;;;;5033825;28;20115;-52
2022/06/15 09:45:05;;;;;;;4.05;1.45;;;37.70;36.90;;;;;;5014770;28;20186;-51
2022/06/15 09:47:43;;;;;;;5.65;2.08;;;37.60;36.40;;;;;;5034029;28;20037;-52
2022/06/15 09:50:25;;;;;;;8.75;1.70;;;35.70;36.70;;;;;;5034565;28;20025;-51
2022/06/15 09:52:54;;;;;;;4.63;1.38;;;37.00;36.80;;;;;;5032296;28;20029;-51
2022/06/15 09:55:35;;;;;;;4.57;1.55;;;36.60;36.40;;;;;;5032220;28;20037;-51
2022/06/15 09:58:02;;;;;;;6.50;1.30;;;36.40;37.40;;;;;;5033024;28;20033;-51
2022/06/15 10:00:29;;;;;;;3.58;1.70;;;36.20;36.90;;;;;;5032330;28;20025;-50
2022/06/15 10:03:15;;;;;;;5.65;1.27;;;36.10;37.30;;;;;;5016848;28;20675;-50
2022/06/15 10:05:43;;;;;;;3.60;1.60;;;37.10;36.30;;;;;;5018255;28;20036;-50
2022/06/15 10:08:13;;;;;;;7.10;2.43;;;38.30;36.40;;;;;;5032550;28;20029;-51
2022/06/15 10:10:55;;;;;;;6.97;3.10;;;38.00;36.00;;;;;;5032068;28;20038;-51
2022/06/15 10:13:21;;;;;;;6.68;1.75;;;38.30;36.00;;;;;;5031811;28;20084;-51
2022/06/15 10:15:59;;;;;;;7.05;1.88;;;38.30;36.10;;;;;;5032019;28;20029;-51
2022/06/15 10:18:38;;;;;;;9.85;1.90;;;38.00;34.80;;;;;;5032606;28;20025;-52
2022/06/15 10:21:18;;;;;;;;;;;35.40;35.90;;;;;;5031848;28;20104;-51
2022/06/15 10:23:49;;;;;;;7.18;1.70;;;37.00;36.30;;;;;;5031025;28;19955;-50
2022/06/15 10:26:45;;;;;;;7.53;2.33;;;37.20;36.70;;;;;;5021177;28;20029;-50
2022/06/15 10:29:23;;;;;;;4.35;2.05;;;37.80;36.20;;;;;;4962473;28;20039;-50
2022/06/15 10:32:03;;;;;;;3.13;1.38;;;37.50;34.20;;;;;;5030576;28;20027;-50
2022/06/15 10:34:43;;;;;;;4.78;1.10;;;36.00;36.20;;;;;;5032255;28;20364;-50
2022/06/15 10:37:30;;;;;;;4.80;1.60;;;36.60;35.50;;;;;;5031560;28;20028;-50
2022/06/15 10:40:00;;;;;;;4.43;2.17;;;36.30;35.30;;;;;;5031592;28;20087;-51
2022/06/15 10:42:32;;;;;;;4.13;1.45;;;34.90;37.40;;;;;;5032127;28;20651;-51
2022/06/15 10:45:18;;;;;;;13.25;8.48;;;34.60;38.70;;;;;;5031406;28;20056;-51
2022/06/15 10:47:51;;;;;;;6.05;1.60;;;35.60;37.40;;;;;;5025953;28;20025;-51
2022/06/15 10:50:26;;;;;;;2.20;1.23;;;36.50;36.50;;;;;;5031263;28;20030;-51
2022/06/15 10:53:06;;;;;;;3.58;1.30;;;36.50;36.50;;;;;;5031036;28;20071;-50
2022/06/15 11:04:09;;;;;;;3.22;1.20;;;37.80;36.10;;;;;;5018885;28;20037;-51
2022/06/15 11:06:41;;;;;;;5.80;1.52;;;37.90;35.90;;;;;;5029655;28;20033;-51
2022/06/15 11:09:24;;;;;;;4.85;1.17;;;37.80;36.30;;;;;;5029568;28;20033;-51
2022/06/15 11:11:51;;;;;;;9.35;1.75;;;37.80;36.00;;;;;;5029129;28;20029;-50
2022/06/15 11:14:46;;;;;;;3.28;1.20;;;37.50;35.80;;;;;;5028616;28;20495;-50
2022/06/15 11:21:04;;;;;;;5.43;1.50;;;38.10;35.20;;;;;;5028251;28;20041;-50
2022/06/15 11:23:57;;;;;;;5.00;1.43;;;39.40;35.00;;;;;;5021283;28;20076;-51
2022/06/15 11:26:59;;;;;;;2.97;1.52;;;38.90;35.00;;;;;;5023739;28;20276;-51
2022/06/15 11:29:38;;;;;;;3.33;1.30;;;38.90;35.30;;;;;;5030295;28;20048;-52
2022/06/15 11:32:24;;;;;;;6.55;1.75;;;39.00;36.00;;;;;;5031003;28;20056;-51
2022/06/15 11:35:13;;;;;;;3.10;1.35;;;39.70;35.70;;;;;;5025131;28;20674;-52
2022/06/15 11:37:41;;;;;;;;;;;38.90;36.00;;;;;;5000998;28;20098;-51
2022/06/15 11:40:42;;;;;;;5.73;1.30;;;39.10;35.20;;;;;;5030217;28;19909;-51
2022/06/15 11:43:24;;;;;;;4.22;1.60;;;39.50;34.60;;;;;;5005754;28;20645;-51
2022/06/15 11:46:32;;;;;;;3.58;1.60;;;38.70;35.60;;;;;;5030550;28;20628;-51
2022/06/15 11:49:14;;;;;;;4.10;1.45;;;39.40;34.40;;;;;;5010956;28;20092;-51
2022/06/15 11:51:46;;;;;;;5.38;1.50;;;39.00;34.90;;;;;;5009113;28;20030;-51
2022/06/15 11:54:33;;;;;;;6.15;1.55;;;38.90;34.60;;;;;;5019577;28;20152;-50
2022/06/15 11:57:15;;;;;;;5.20;1.75;;;39.30;33.10;;;;;;5027883;28;20390;-50
2022/06/15 11:59:54;;;;;;;6.00;1.92;;;36.70;35.50;;;;;;5027642;28;20032;-50
2022/06/15 12:02:54;;;;;;;5.07;1.65;;;35.80;36.50;;;;;;5027673;28;20475;-48
2022/06/15 12:05:34;;;;;;;4.15;1.50;;;34.60;37.70;;;;;;5028870;28;20037;-51
2022/06/15 12:08:27;;;;;;;3.50;1.50;;;34.30;37.80;;;;;;5028533;28;20072;-50
2022/06/15 12:11:00;;;;;;;6.00;1.88;;;33.80;37.70;;;;;;5027987;28;20124;-50
2022/06/15 12:13:40;;;;;;;5.32;1.70;;;33.40;39.30;;;;;;5028080;28;20095;-50
2022/06/15 12:16:36;;;;;;;4.53;1.35;;;33.10;41.10;;;;;;5027936;28;20075;-50
2022/06/15 12:19:32;;;;;;;5.00;1.77;;;33.00;40.50;;;;;;5028813;28;20399;-50
2022/06/15 12:22:10;;;;;;;5.32;1.85;;;32.90;40.00;;;;;;5009078;28;20026;-48
2022/06/15 12:24:47;;;;;;;2.90;1.45;;;32.40;39.00;;;;;;5020761;28;20029;-51
2022/06/15 12:27:21;;;;;;;3.90;1.20;;;31.40;39.00;;;;;;5027990;28;20406;-47
2022/06/15 12:29:56;;;;;;;3.45;1.50;;;31.10;40.10;;;;;;5015284;28;20026;-51
2022/06/15 12:35:11;;;;;;;6.68;1.85;;;30.80;41.30;;;;;;5017218;28;20028;-50
2022/06/15 12:37:45;;;;;;;6.07;2.03;;;30.60;40.80;;;;;;5022239;28;20017;-50
2022/06/15 12:40:32;;;;;;;2.90;1.42;;;30.50;41.50;;;;;;5018577;28;20028;-48
2022/06/15 12:43:05;;;;;;;5.13;1.70;;;30.80;41.40;;;;;;5019448;28;20036;-47
2022/06/15 12:45:35;;;;;;;6.25;1.80;;;30.30;40.40;;;;;;5021077;28;20119;-48
2022/06/15 12:48:11;;;;;;;6.90;2.03;;;30.20;42.70;;;;;;5018584;28;20025;-50
2022/06/15 12:50:45;;;;;;;3.65;2.00;;;30.20;41.30;;;;;;5023079;28;20052;-50
2022/06/15 12:53:27;;;;;;;7.15;2.05;;;30.40;42.00;;;;;;5020278;28;20530;-48
2022/06/15 12:56:07;;;;;;;4.05;1.65;;;29.90;40.70;;;;;;5026010;28;20034;-50
2022/06/15 12:59:01;;;;;;;6.80;2.07;;;29.80;39.90;;;;;;5028606;28;20471;-49
2022/06/15 13:01:44;;;;;;;3.90;1.60;;;29.50;41.00;;;;;;5027949;28;20295;-49
2022/06/15 13:04:33;;;;;;;5.70;1.70;;;29.90;41.70;;;;;;5028821;28;20033;-51
2022/06/15 13:07:25;;;;;;;3.78;1.50;;;30.30;42.00;;;;;;5027749;28;20025;-48
2022/06/15 13:10:14;;;;;;;3.95;1.65;;;30.00;41.20;;;;;;5024766;28;20038;-49
2022/06/15 13:12:56;;;;;;;4.97;1.52;;;30.50;42.60;;;;;;5025815;28;20080;-49
2022/06/15 13:15:30;;;;;;;6.90;1.73;;;30.70;41.60;;;;;;5023634;28;20101;-49
2022/06/15 13:18:11;;;;;;;3.25;1.50;;;30.50;40.80;;;;;;5026162;28;20108;-50
2022/06/15 13:20:45;;;;;;;6.63;2.03;;;30.70;41.80;;;;;;5027262;28;20068;-50
2022/06/15 13:23:24;;;;;;;1.48;1.10;;;30.90;40.60;;;;;;5020675;28;20112;-52
2022/06/15 13:25:56;;;;;;;4.68;1.85;;;31.00;40.90;;;;;;5028074;28;20028;-51
2022/06/15 13:28:25;;;;;;;2.40;1.42;;;31.00;40.80;;;;;;5031667;28;20052;-51
2022/06/15 13:30:57;;;;;;;3.95;1.40;;;31.10;40.50;;;;;;5031591;28;20021;-49
2022/06/15 13:33:46;;;;;;;6.40;1.42;;;31.10;41.70;;;;;;5032758;28;20382;-51
2022/06/15 13:36:11;;;;;;;4.43;1.42;;;30.90;41.10;;;;;;5030501;28;20020;-49
2022/06/15 13:38:39;;;;;;;5.93;1.70;;;30.80;40.60;;;;;;5031545;28;20113;-49